Nelse, Kentucky
Current Conditions -  °F | °C
As of 10:15 PM on Sunday 21 Dec 2014 (Local Time) from KPBX Reporting Station
Clear Clear  
Wind Chill: 33°   Ceiling: Unl
Heat Index: 33°   Visibility: 10mi
Dew Point: 27°   Wind: 3mph
Humidity: 78%   Direction: 40°NE
Pressure: 30.1"   Gusts: NA
Location:  37.5348°N, 82.513°W
Report Text: KPBX 220315Z AUTO 04003KT 10SM CLR 00/M03 A3010 RMK AO2 T00041030
Loading
Personal Weather Stations






























Interactive Weather Map New forecast layout! Learn more

10-Day Weather Forecast

Advertisements
Track Severe Weather on mobile